createdAt,value
2018-06-18T00:01:05.752Z,15.57
2018-06-18T00:03:35.691Z,15.10
2018-06-18T00:06:04.386Z,12.27
2018-06-18T00:08:33.704Z,13.40
2018-06-18T00:11:02.336Z,12.87
2018-06-18T00:13:30.991Z,12.07
2018-06-18T00:15:59.620Z,13.07
2018-06-18T00:18:28.318Z,8.73
2018-06-18T00:20:57.005Z,12.83
2018-06-18T00:23:25.670Z,12.80
2018-06-18T00:25:54.436Z,13.90
2018-06-18T00:28:23.129Z,12.60
2018-06-18T00:30:51.951Z,11.30
2018-06-18T00:33:20.614Z,11.57
2018-06-18T00:35:49.309Z,13.90
2018-06-18T00:38:18.055Z,10.87
2018-06-18T00:40:46.987Z,15.93
2018-06-18T00:43:15.633Z,12.93
2018-06-18T00:45:44.286Z,8.90
2018-06-18T00:48:13.048Z,13.27
2018-06-18T00:50:42.184Z,12.33
2018-06-18T00:53:10.922Z,10.70
2018-06-18T00:55:50.822Z,11.20
2018-06-18T00:58:19.544Z,12.37
2018-06-18T01:00:48.219Z,12.97
2018-06-18T01:03:16.914Z,10.50
2018-06-18T01:05:45.555Z,11.43
2018-06-18T01:08:14.235Z,10.80
2018-06-18T01:10:42.980Z,10.67
2018-06-18T01:13:11.666Z,10.47
2018-06-18T01:15:40.328Z,13.10
2018-06-18T01:18:08.979Z,12.43
2018-06-18T01:20:37.662Z,14.17
2018-06-18T01:25:18.683Z,12.37
2018-06-18T01:27:47.331Z,8.83
2018-06-18T01:30:16.018Z,11.87
2018-06-18T01:32:44.660Z,10.43
2018-06-18T01:35:13.355Z,10.23
2018-06-18T01:37:42.027Z,10.77
2018-06-18T01:40:10.713Z,9.83
2018-06-18T01:42:39.410Z,10.63
2018-06-18T01:45:08.110Z,9.20
2018-06-18T01:47:36.782Z,9.63
2018-06-18T01:50:05.492Z,8.60
2018-06-18T01:52:34.191Z,10.80
2018-06-18T01:55:02.851Z,8.20
2018-06-18T01:57:31.545Z,14.10
2018-06-18T02:00:00.210Z,10.67
2018-06-18T02:02:28.967Z,12.57
2018-06-18T02:04:57.287Z,13.23
2018-06-18T02:07:26.027Z,13.77
2018-06-18T02:09:54.814Z,11.57
2018-06-18T02:12:23.529Z,12.10
2018-06-18T02:14:52.243Z,13.27
2018-06-18T02:17:20.919Z,13.27
2018-06-18T02:19:49.610Z,8.57
2018-06-18T02:22:17.913Z,12.40
2018-06-18T02:24:46.552Z,12.40
2018-06-18T02:27:18.037Z,12.63
2018-06-18T02:29:52.359Z,11.90
2018-06-18T02:32:26.608Z,12.90
2018-06-18T02:35:00.563Z,9.97
2018-06-18T02:37:34.521Z,10.33
2018-06-18T02:40:08.469Z,13.80
2018-06-18T02:42:37.181Z,12.97
2018-06-18T02:45:06.259Z,10.73
2018-06-18T02:47:35.009Z,14.53
2018-06-18T02:50:03.825Z,10.07
2018-06-18T02:52:32.532Z,10.50
2018-06-18T02:55:01.220Z,12.83
2018-06-18T02:57:30.332Z,13.57
2018-06-18T02:59:59.047Z,12.57
2018-06-18T03:02:27.746Z,9.33
2018-06-18T03:04:56.968Z,9.90
2018-06-18T03:07:25.732Z,15.70
2018-06-18T03:09:54.397Z,13.23
2018-06-18T03:12:23.121Z,13.43
2018-06-18T03:14:51.857Z,15.23
2018-06-18T03:17:20.529Z,10.47
2018-06-18T03:19:54.474Z,11.57
2018-06-18T03:22:28.303Z,13.90
2018-06-18T03:25:02.247Z,14.23
2018-06-18T03:27:36.171Z,13.17
2018-06-18T03:30:04.885Z,14.63
2018-06-18T03:32:33.543Z,15.17
2018-06-18T03:35:02.270Z,12.30
2018-06-18T03:37:31.049Z,11.37
2018-06-18T03:39:59.703Z,10.90
2018-06-18T03:42:28.319Z,9.90
2018-06-18T03:45:02.736Z,15.03
2018-06-18T03:47:31.524Z,11.30
2018-06-18T03:50:00.321Z,12.13
2018-06-18T03:52:29.010Z,12.10
2018-06-18T03:55:00.411Z,12.00
2018-06-18T03:57:29.028Z,15.23
2018-06-18T03:59:57.726Z,10.50
2018-06-18T04:02:42.372Z,11.90
2018-06-18T04:05:16.249Z,11.23
2018-06-18T04:07:50.170Z,13.40
2018-06-18T04:10:24.170Z,14.77
2018-06-18T04:12:52.839Z,16.13
2018-06-18T04:15:22.419Z,11.87
2018-06-18T04:17:51.126Z,13.73
2018-06-18T04:20:20.629Z,11.43
2018-06-18T04:22:49.283Z,13.13
2018-06-18T04:25:17.913Z,13.63
2018-06-18T04:27:46.584Z,13.77
2018-06-18T04:30:15.374Z,14.20
2018-06-18T04:32:45.158Z,13.33
2018-06-18T04:35:13.824Z,13.83
2018-06-18T04:37:42.565Z,10.80
2018-06-18T04:40:11.351Z,12.57
2018-06-18T04:42:45.188Z,15.00
2018-06-18T04:45:19.056Z,11.97
2018-06-18T04:47:52.978Z,10.70
2018-06-18T04:50:26.985Z,11.20
2018-06-18T04:52:55.960Z,14.53
2018-06-18T04:55:24.707Z,11.60
2018-06-18T04:57:53.411Z,12.33
2018-06-18T05:01:27.099Z,11.80
2018-06-18T05:03:55.913Z,14.53
2018-06-18T05:06:29.255Z,14.33
2018-06-18T05:09:12.261Z,11.13
2018-06-18T05:11:41.010Z,12.90
2018-06-18T05:14:09.642Z,11.63
2018-06-18T05:16:38.288Z,13.40
2018-06-18T05:19:06.970Z,15.07
2018-06-18T05:21:35.861Z,12.53
2018-06-18T05:24:04.849Z,14.17
2018-06-18T05:26:35.255Z,13.33
2018-06-18T05:29:03.928Z,13.10
2018-06-18T05:31:32.561Z,10.27
2018-06-18T05:34:01.885Z,10.10
2018-06-18T05:36:30.647Z,12.07
2018-06-18T05:38:59.335Z,10.97
2018-06-18T05:41:28.037Z,11.73
2018-06-18T05:43:56.696Z,14.07
2018-06-18T05:46:25.343Z,10.87
2018-06-18T05:48:54.079Z,9.30
2018-06-18T05:51:22.792Z,10.43
2018-06-18T05:53:51.481Z,11.80
2018-06-18T05:56:20.168Z,13.00
2018-06-18T05:58:48.798Z,8.90
2018-06-18T06:01:17.423Z,13.27
2018-06-18T06:03:47.079Z,14.67
2018-06-18T06:06:15.825Z,11.63
2018-06-18T06:08:44.569Z,11.30
2018-06-18T06:11:12.858Z,12.17
2018-06-18T06:13:41.576Z,11.67
2018-06-18T06:16:10.241Z,8.13
2018-06-18T06:18:38.974Z,11.70
2018-06-18T06:21:10.053Z,8.60
2018-06-18T06:23:38.729Z,11.40
2018-06-18T06:26:07.371Z,9.93
2018-06-18T06:28:36.027Z,9.83
2018-06-18T06:31:04.732Z,10.40
2018-06-18T06:33:33.414Z,11.67
2018-06-18T06:36:02.477Z,9.50
2018-06-18T06:38:31.151Z,8.73
2018-06-18T06:40:59.866Z,9.80
2018-06-18T06:43:28.527Z,9.87
2018-06-18T06:45:57.141Z,9.67
2018-06-18T06:48:25.761Z,7.70
2018-06-18T06:50:54.434Z,13.50
2018-06-18T06:53:23.119Z,10.70
2018-06-18T06:55:51.828Z,8.47
2018-06-18T06:58:20.460Z,11.40
2018-06-18T07:00:49.147Z,13.97
2018-06-18T07:03:17.841Z,9.10
2018-06-18T07:05:46.689Z,18.73
2018-06-18T07:08:15.059Z,12.40
2018-06-18T07:10:43.714Z,10.17
2018-06-18T07:13:12.361Z,12.77
2018-06-18T07:15:41.033Z,9.93
2018-06-18T07:18:09.713Z,11.87
2018-06-18T07:20:38.321Z,13.10
2018-06-18T07:23:06.635Z,10.70
2018-06-18T07:25:35.343Z,11.50
2018-06-18T07:28:03.997Z,11.90
2018-06-18T07:30:33.023Z,9.23
2018-06-18T07:33:01.557Z,12.80
2018-06-18T07:35:30.248Z,8.30
2018-06-18T07:37:58.628Z,6.73
2018-06-18T07:40:27.267Z,7.67
2018-06-18T07:42:55.925Z,8.83
2018-06-18T07:45:24.632Z,8.10
2018-06-18T07:47:53.271Z,9.30
2018-06-18T07:50:21.991Z,12.03
2018-06-18T07:52:50.317Z,12.70
2018-06-18T07:55:19.023Z,7.03
2018-06-18T07:57:47.681Z,8.97
2018-06-18T08:00:16.352Z,7.40
2018-06-18T08:02:45.044Z,7.83
2018-06-18T08:05:13.754Z,12.47
2018-06-18T08:07:42.472Z,7.83
2018-06-18T08:10:11.436Z,6.97
2018-06-18T08:12:40.172Z,6.30
2018-06-18T08:15:08.921Z,10.90
2018-06-18T08:17:37.554Z,8.40
2018-06-18T08:20:06.313Z,9.13
2018-06-18T08:22:35.093Z,8.60
2018-06-18T08:25:03.869Z,8.77
2018-06-18T08:27:32.547Z,7.93
2018-06-18T08:30:01.219Z,7.13
2018-06-18T08:32:29.917Z,6.97
2018-06-18T08:34:58.579Z,6.53
2018-06-18T08:37:27.283Z,8.67
2018-06-18T08:39:55.932Z,6.10
2018-06-18T08:42:24.646Z,9.03
2018-06-18T08:44:53.364Z,7.53
2018-06-18T08:47:22.298Z,6.80
2018-06-18T08:49:56.280Z,9.53
2018-06-18T08:52:30.234Z,7.47
2018-06-18T08:55:04.144Z,4.80
2018-06-18T08:57:38.066Z,5.40
2018-06-18T09:00:11.990Z,8.30
2018-06-18T09:02:46.007Z,6.77
2018-06-18T09:05:14.663Z,5.53
2018-06-18T09:07:48.627Z,8.10
2018-06-18T09:10:17.413Z,6.50
2018-06-18T09:12:46.145Z,6.90
2018-06-18T09:15:14.853Z,8.63
2018-06-18T09:17:43.645Z,10.77
2018-06-18T09:20:12.397Z,7.87
2018-06-18T09:22:41.137Z,8.00
2018-06-18T09:25:09.852Z,6.57
2018-06-18T09:27:38.518Z,6.47
2018-06-18T09:30:10.724Z,7.97
2018-06-18T09:32:39.487Z,8.53
2018-06-18T09:35:08.162Z,10.40
2018-06-18T09:37:36.837Z,9.03
2018-06-18T09:40:05.496Z,7.47
2018-06-18T09:42:34.330Z,7.47
2018-06-18T09:45:03.642Z,6.03
2018-06-18T09:47:32.314Z,9.43
2018-06-18T09:50:06.243Z,7.37
2018-06-18T09:52:40.163Z,6.70
2018-06-18T09:55:14.115Z,5.20
2018-06-18T09:57:48.195Z,6.40
2018-06-18T10:00:32.213Z,5.97
2018-06-18T10:03:00.936Z,10.13
2018-06-18T10:05:29.731Z,7.97
2018-06-18T10:07:58.381Z,5.83
2018-06-18T10:10:27.053Z,5.93
2018-06-18T10:12:55.729Z,5.70
2018-06-18T10:15:24.381Z,6.47
2018-06-18T10:17:53.047Z,8.30
2018-06-18T10:20:21.791Z,9.73
2018-06-18T10:22:50.535Z,10.23
2018-06-18T10:25:19.190Z,7.30
2018-06-18T10:27:49.985Z,6.87
2018-06-18T10:30:18.796Z,10.00
2018-06-18T10:32:52.922Z,9.63
2018-06-18T10:35:26.876Z,11.57
2018-06-18T10:38:00.923Z,9.73
2018-06-18T10:40:34.796Z,9.23
2018-06-18T10:43:08.814Z,8.60
2018-06-18T10:45:37.516Z,10.60
2018-06-18T10:48:06.320Z,11.57
2018-06-18T10:50:34.977Z,11.57
2018-06-18T10:53:03.677Z,10.23
2018-06-18T10:55:32.397Z,10.70
2018-06-18T10:58:00.730Z,10.97
2018-06-18T11:00:29.721Z,10.10
2018-06-18T11:02:58.505Z,10.17
2018-06-18T11:05:32.511Z,11.37
2018-06-18T11:08:01.212Z,10.87
2018-06-18T11:10:30.012Z,11.40
2018-06-18T11:12:58.644Z,11.97
2018-06-18T11:15:27.441Z,12.10
2018-06-18T11:18:01.440Z,12.10
2018-06-18T11:20:35.347Z,12.13
2018-06-18T11:23:09.351Z,13.43
2018-06-18T11:25:43.343Z,11.77
2018-06-18T11:28:12.160Z,11.83
2018-06-18T11:30:41.012Z,12.87
2018-06-18T11:33:09.653Z,14.10
2018-06-18T11:35:38.437Z,12.33
2018-06-18T11:38:07.265Z,11.97
2018-06-18T11:40:35.908Z,11.27
2018-06-18T11:43:04.631Z,11.60
2018-06-18T11:45:33.351Z,11.73
2018-06-18T11:48:08.419Z,11.43
2018-06-18T11:50:37.087Z,12.50
2018-06-18T11:53:06.112Z,15.13
2018-06-18T11:55:35.465Z,18.07
2018-06-18T11:58:04.795Z,18.97
2018-06-18T12:00:38.896Z,19.03
2018-06-18T12:03:12.961Z,16.67
2018-06-18T12:05:46.987Z,19.77
2018-06-18T12:08:21.002Z,19.57
2018-06-18T12:10:50.691Z,18.33
2018-06-18T12:13:19.494Z,18.40
2018-06-18T12:15:48.133Z,17.00
2018-06-18T12:18:19.087Z,16.90
2018-06-18T12:20:47.733Z,16.60
2018-06-18T12:23:16.470Z,12.03
2018-06-18T12:25:45.163Z,14.33
2018-06-18T12:28:13.899Z,12.27
2018-06-18T12:30:42.560Z,12.70
2018-06-18T12:33:11.295Z,12.73
2018-06-18T12:35:40.008Z,11.90
2018-06-18T12:38:08.764Z,11.60
2018-06-18T12:40:37.410Z,11.57
2018-06-18T12:43:06.165Z,11.63
2018-06-18T12:45:40.234Z,12.63
2018-06-18T12:48:14.239Z,13.23
2018-06-18T12:50:48.283Z,11.40
2018-06-18T12:53:22.193Z,13.90
2018-06-18T12:55:56.377Z,12.87
2018-06-18T12:58:25.471Z,12.00
2018-06-18T13:00:54.095Z,12.27
2018-06-18T13:03:22.924Z,14.20
2018-06-18T13:05:51.594Z,14.00
2018-06-18T13:08:20.309Z,12.73
2018-06-18T13:10:49.478Z,15.17
2018-06-18T13:13:18.185Z,12.80
2018-06-18T13:15:46.884Z,13.47
2018-06-18T13:18:15.741Z,13.67
2018-06-18T13:20:44.530Z,13.80
2018-06-18T13:23:13.213Z,13.90
2018-06-18T13:25:41.880Z,14.93
2018-06-18T13:28:16.249Z,15.07
2018-06-18T13:30:45.584Z,12.17
2018-06-18T13:33:14.280Z,11.93
2018-06-18T13:35:42.975Z,16.33
2018-06-18T13:38:16.927Z,14.23
2018-06-18T13:40:51.027Z,15.90
2018-06-18T13:43:24.914Z,16.20
2018-06-18T13:45:58.649Z,14.30
2018-06-18T13:48:32.698Z,14.80
2018-06-18T13:51:01.512Z,17.73
2018-06-18T13:53:30.224Z,18.47
2018-06-18T13:55:58.938Z,15.73
2018-06-18T13:58:27.681Z,15.80
2018-06-18T14:00:56.473Z,16.53
2018-06-18T14:03:25.184Z,15.00
2018-06-18T14:05:54.235Z,14.67
2018-06-18T14:08:23.092Z,17.60
2018-06-18T14:10:51.876Z,14.37
2018-06-18T14:13:20.576Z,13.60
2018-06-18T14:15:49.264Z,13.30
2018-06-18T14:18:17.983Z,16.10
2018-06-18T14:20:46.759Z,13.33
2018-06-18T14:23:15.526Z,12.10
2018-06-18T14:25:44.287Z,13.77
2018-06-18T14:28:13.055Z,14.20
2018-06-18T14:30:47.211Z,13.93
2018-06-18T14:33:37.896Z,17.17
2018-06-18T14:36:11.986Z,11.73
2018-06-18T14:38:45.971Z,11.70
2018-06-18T14:41:14.656Z,13.00
2018-06-18T14:43:43.331Z,10.60
2018-06-18T14:46:11.987Z,12.63
2018-06-18T14:48:40.763Z,10.20
2018-06-18T14:51:09.384Z,12.00
2018-06-18T14:53:38.042Z,10.10
2018-06-18T14:56:13.377Z,9.60
2018-06-18T14:58:44.794Z,10.10
2018-06-18T15:01:13.470Z,9.33
2018-06-18T15:03:42.135Z,9.57
2018-06-18T15:06:10.823Z,13.17
2018-06-18T15:08:39.431Z,10.23
2018-06-18T15:11:08.061Z,10.43
2018-06-18T15:13:36.686Z,11.10
2018-06-18T15:16:10.715Z,10.97
2018-06-18T15:18:39.349Z,10.10
2018-06-18T15:21:08.192Z,11.00
2018-06-18T15:23:36.846Z,12.13
2018-06-18T15:26:05.921Z,11.87
2018-06-18T15:28:34.497Z,10.57
2018-06-18T15:31:03.177Z,13.23
2018-06-18T15:33:31.823Z,11.07
2018-06-18T15:36:00.433Z,8.90
2018-06-18T15:38:29.211Z,11.70
2018-06-18T15:40:58.676Z,10.10
2018-06-18T15:43:27.312Z,11.80
2018-06-18T15:45:55.985Z,11.00
2018-06-18T15:48:24.642Z,10.17
2018-06-18T15:50:53.276Z,12.53
2018-06-18T15:53:21.965Z,10.17
2018-06-18T15:55:50.707Z,10.73
2018-06-18T15:58:19.316Z,12.83
2018-06-18T16:00:48.019Z,13.27
2018-06-18T16:03:16.710Z,14.40
2018-06-18T16:05:45.365Z,11.47
2018-06-18T16:08:13.971Z,13.53
2018-06-18T16:10:42.283Z,13.57
2018-06-18T16:13:10.942Z,12.23
2018-06-18T16:15:39.631Z,13.50
2018-06-18T16:18:08.280Z,11.83
2018-06-18T16:20:36.926Z,13.77
2018-06-18T16:23:05.736Z,14.50
2018-06-18T16:25:34.444Z,12.20
2018-06-18T16:28:03.085Z,12.37
2018-06-18T16:30:31.782Z,12.50
2018-06-18T16:33:00.407Z,11.80
2018-06-18T16:35:29.062Z,11.57
2018-06-18T16:37:57.675Z,10.30
2018-06-18T16:40:26.303Z,9.53
2018-06-18T16:42:55.070Z,11.27
2018-06-18T16:45:23.657Z,9.63
2018-06-18T16:47:52.295Z,9.47
2018-06-18T16:50:20.916Z,8.23
2018-06-18T16:52:49.584Z,8.07
2018-06-18T16:55:18.261Z,9.00
2018-06-18T16:57:46.896Z,8.90
2018-06-18T17:00:15.549Z,10.03
2018-06-18T17:02:44.198Z,11.10
2018-06-18T17:05:12.858Z,11.07
2018-06-18T17:07:41.529Z,10.13
2018-06-18T17:10:10.128Z,10.07
2018-06-18T17:12:38.917Z,10.87
2018-06-18T17:15:07.614Z,12.30
2018-06-18T17:17:36.267Z,11.10
2018-06-18T17:20:05.059Z,11.87
2018-06-18T17:22:33.760Z,9.23
2018-06-18T17:25:02.364Z,11.67
2018-06-18T17:27:31.011Z,8.50
2018-06-18T17:29:59.654Z,10.67
2018-06-18T17:32:28.273Z,11.27
2018-06-18T17:34:56.973Z,12.80
2018-06-18T17:37:25.653Z,12.93
2018-06-18T17:39:54.342Z,14.20
2018-06-18T17:42:23.023Z,11.97
2018-06-18T17:44:52.006Z,13.47
2018-06-18T17:47:20.730Z,14.50
2018-06-18T17:49:49.445Z,11.63
2018-06-18T17:52:18.134Z,13.77
2018-06-18T17:54:46.774Z,12.00
2018-06-18T17:57:15.416Z,10.67
2018-06-18T17:59:44.138Z,13.07
2018-06-18T18:02:12.960Z,12.80
2018-06-18T18:04:41.600Z,11.13
2018-06-18T18:07:10.385Z,9.57
2018-06-18T18:09:39.078Z,12.13
2018-06-18T18:12:07.775Z,9.97
2018-06-18T18:14:36.493Z,12.20
2018-06-18T18:17:05.405Z,10.93
2018-06-18T18:19:34.115Z,10.47
2018-06-18T18:22:02.802Z,9.97
2018-06-18T18:24:31.475Z,11.53
2018-06-18T18:27:00.070Z,9.53
2018-06-18T18:29:28.677Z,11.20
2018-06-18T18:31:57.292Z,9.77
2018-06-18T18:34:25.924Z,9.77
2018-06-18T18:36:54.704Z,11.83
2018-06-18T18:39:23.391Z,10.00
2018-06-18T18:41:52.048Z,12.97
2018-06-18T18:44:20.761Z,11.17
2018-06-18T18:46:49.614Z,10.67
2018-06-18T18:49:18.240Z,10.60
2018-06-18T18:51:48.266Z,11.37
2018-06-18T18:55:31.424Z,9.77
2018-06-18T18:58:12.541Z,13.53
2018-06-18T19:00:41.441Z,10.30
2018-06-18T19:03:10.102Z,9.10
2018-06-18T19:05:38.854Z,10.70
2018-06-18T19:08:08.333Z,10.17
2018-06-18T19:10:39.011Z,9.70
2018-06-18T19:13:10.551Z,9.13
2018-06-18T19:15:39.770Z,9.40
2018-06-18T19:18:09.127Z,8.87
2018-06-18T19:20:47.762Z,10.20
2018-06-18T19:23:16.517Z,8.97
2018-06-18T19:25:45.275Z,11.03
2018-06-18T19:28:13.963Z,9.57
2018-06-18T19:30:45.525Z,10.60
2018-06-18T19:33:18.393Z,9.43
2018-06-18T19:35:47.085Z,10.23
2018-06-18T19:38:15.716Z,9.87
2018-06-18T19:40:44.417Z,11.53
2018-06-18T19:43:13.075Z,9.30
2018-06-18T19:45:45.043Z,9.67
2018-06-18T19:48:18.517Z,11.17
2018-06-18T19:50:47.313Z,10.90
2018-06-18T19:53:15.949Z,9.27
2018-06-18T19:55:44.636Z,9.93
2018-06-18T19:58:13.343Z,11.00
2018-06-18T20:00:50.333Z,12.03
2018-06-18T20:03:19.100Z,12.17
2018-06-18T20:05:48.790Z,11.33
2018-06-18T20:08:23.832Z,9.57
2018-06-18T20:10:52.606Z,10.07
2018-06-18T20:13:20.934Z,12.03
2018-06-18T20:15:49.730Z,13.90
2018-06-18T20:18:18.396Z,11.90
2018-06-18T20:20:47.095Z,11.57
2018-06-18T20:23:17.997Z,11.80
2018-06-18T20:25:49.251Z,11.83
2018-06-18T20:28:18.923Z,11.03
2018-06-18T20:30:47.649Z,11.57
2018-06-18T20:33:18.105Z,10.27
2018-06-18T20:35:53.431Z,11.83
2018-06-18T20:38:22.154Z,11.37
2018-06-18T20:40:50.989Z,10.43
2018-06-18T20:43:20.439Z,11.60
2018-06-18T20:45:49.203Z,12.43
2018-06-18T20:48:17.961Z,10.93
2018-06-18T20:50:46.715Z,10.23
2018-06-18T20:53:15.487Z,11.50
2018-06-18T20:55:44.232Z,11.43
2018-06-18T20:58:17.096Z,11.13
2018-06-18T21:00:45.830Z,10.30
2018-06-18T21:03:14.600Z,11.67
2018-06-18T21:05:43.370Z,13.40
2018-06-18T21:08:12.164Z,13.17
2018-06-18T21:10:41.027Z,10.80
2018-06-18T21:13:09.835Z,13.10
2018-06-18T21:15:38.546Z,11.80
2018-06-18T21:18:07.391Z,14.47
2018-06-18T21:20:36.144Z,13.53
2018-06-18T21:23:05.779Z,13.17
2018-06-18T21:25:34.574Z,13.37
2018-06-18T21:28:03.411Z,13.20
2018-06-18T21:30:31.736Z,12.73
2018-06-18T21:33:00.875Z,13.27
2018-06-18T21:35:29.646Z,13.90
2018-06-18T21:37:58.339Z,13.33
2018-06-18T21:40:27.056Z,14.93
2018-06-18T21:42:55.392Z,13.27
2018-06-18T21:45:25.584Z,11.83
2018-06-18T21:47:55.351Z,11.83
2018-06-18T21:50:24.087Z,10.10
2018-06-18T21:52:52.788Z,10.40
2018-06-18T21:55:21.448Z,7.37
2018-06-18T21:57:50.236Z,8.13
2018-06-18T22:00:22.177Z,7.47
2018-06-18T22:02:50.882Z,7.03
2018-06-18T22:05:19.635Z,8.53
2018-06-18T22:07:48.353Z,6.50
2018-06-18T22:10:17.241Z,6.80
2018-06-18T22:12:47.083Z,6.57
2018-06-18T22:15:15.977Z,6.47
2018-06-18T22:17:46.150Z,7.13
2018-06-18T22:20:15.060Z,6.43
2018-06-18T22:22:43.987Z,6.63
2018-06-18T22:25:13.037Z,5.10
2018-06-18T22:27:41.992Z,8.20
2018-06-18T22:30:11.243Z,6.33
2018-06-18T22:32:41.230Z,10.73
2018-06-18T22:35:10.190Z,6.43
2018-06-18T22:37:40.376Z,7.30
2018-06-18T22:40:09.408Z,6.97
2018-06-18T22:42:38.460Z,6.73
2018-06-18T22:45:09.593Z,6.67
2018-06-18T22:47:39.917Z,9.60
2018-06-18T22:50:08.719Z,7.50
2018-06-18T22:52:37.537Z,6.27
2018-06-18T22:55:06.352Z,7.87
2018-06-18T22:57:35.357Z,6.63
2018-06-18T23:00:04.204Z,6.17
2018-06-18T23:02:33.731Z,6.10
2018-06-18T23:05:02.453Z,5.43
2018-06-18T23:07:31.230Z,7.20
2018-06-18T23:10:00.013Z,7.83
2018-06-18T23:12:35.946Z,10.07
2018-06-18T23:15:05.954Z,8.30
2018-06-18T23:17:34.712Z,7.87
2018-06-18T23:20:03.521Z,6.60
2018-06-18T23:22:32.264Z,10.13
2018-06-18T23:25:00.932Z,8.57
2018-06-18T23:27:29.696Z,8.33
2018-06-18T23:29:58.428Z,9.60
2018-06-18T23:32:27.165Z,10.20
2018-06-18T23:34:55.901Z,9.00
2018-06-18T23:37:24.658Z,8.37
2018-06-18T23:39:53.525Z,10.80
2018-06-18T23:42:22.333Z,7.27
2018-06-18T23:44:51.122Z,10.80
2018-06-18T23:47:19.873Z,7.97
2018-06-18T23:49:48.673Z,7.60
2018-06-18T23:52:17.405Z,7.73
2018-06-18T23:54:46.065Z,7.80
2018-06-18T23:57:14.759Z,11.53
2018-06-18T23:59:43.610Z,8.20
